sensor_id;sensor_type;location;lat;lon;timestamp;pressure;altitude;pressure_sealevel;temperature;humidity
30708;BME280;17458;48.958;8.284;2023-05-12T00:00:46;100095.47;;;15.17;78.83
30708;BME280;17458;48.958;8.284;2023-05-12T00:03:31;100089.34;;;14.89;79.65
30708;BME280;17458;48.958;8.284;2023-05-12T00:06:16;100087.94;;;15.02;79.92
30708;BME280;17458;48.958;8.284;2023-05-12T00:09:00;100085.78;;;15.20;79.02
30708;BME280;17458;48.958;8.284;2023-05-12T00:11:44;100085.44;;;15.41;77.90
30708;BME280;17458;48.958;8.284;2023-05-12T00:14:29;100090.78;;;15.08;78.69
30708;BME280;17458;48.958;8.284;2023-05-12T00:17:13;100093.94;;;15.25;78.63
30708;BME280;17458;48.958;8.284;2023-05-12T00:19:58;100089.56;;;15.29;78.10
30708;BME280;17458;48.958;8.284;2023-05-12T00:22:41;100094.84;;;15.25;77.98
30708;BME280;17458;48.958;8.284;2023-05-12T00:25:26;100082.41;;;15.28;77.89
30708;BME280;17458;48.958;8.284;2023-05-12T00:28:10;100084.81;;;15.51;77.12
30708;BME280;17458;48.958;8.284;2023-05-12T00:30:55;100087.13;;;15.05;79.19
30708;BME280;17458;48.958;8.284;2023-05-12T00:33:38;100080.69;;;15.30;78.49
30708;BME280;17458;48.958;8.284;2023-05-12T00:36:23;100078.72;;;14.91;79.85
30708;BME280;17458;48.958;8.284;2023-05-12T00:39:08;100067.38;;;15.00;79.74
30708;BME280;17458;48.958;8.284;2023-05-12T00:41:55;100069.88;;;14.94;80.53
30708;BME280;17458;48.958;8.284;2023-05-12T00:44:39;100071.97;;;14.74;81.14
30708;BME280;17458;48.958;8.284;2023-05-12T00:47:24;100079.47;;;15.18;79.59
30708;BME280;17458;48.958;8.284;2023-05-12T00:50:08;100074.38;;;14.95;80.94
30708;BME280;17458;48.958;8.284;2023-05-12T00:52:53;100073.94;;;15.11;79.93
30708;BME280;17458;48.958;8.284;2023-05-12T00:55:37;100067.41;;;15.34;79.13
30708;BME280;17458;48.958;8.284;2023-05-12T00:58:23;100069.22;;;15.35;78.68
30708;BME280;17458;48.958;8.284;2023-05-12T01:01:07;100065.94;;;15.47;78.47
30708;BME280;17458;48.958;8.284;2023-05-12T01:03:52;100069.44;;;15.44;78.77
30708;BME280;17458;48.958;8.284;2023-05-12T01:09:25;100058.91;;;15.50;78.07
30708;BME280;17458;48.958;8.284;2023-05-12T01:12:09;100068.81;;;15.20;79.25
30708;BME280;17458;48.958;8.284;2023-05-12T01:14:55;100072.44;;;15.22;79.55
30708;BME280;17458;48.958;8.284;2023-05-12T01:17:46;100060.75;;;15.18;79.65
30708;BME280;17458;48.958;8.284;2023-05-12T01:20:30;100067.22;;;15.27;79.09
30708;BME280;17458;48.958;8.284;2023-05-12T01:23:18;100067.19;;;15.25;79.14
30708;BME280;17458;48.958;8.284;2023-05-12T01:26:07;100066.94;;;15.50;78.06
30708;BME280;17458;48.958;8.284;2023-05-12T01:28:53;100063.63;;;15.59;77.53
30708;BME280;17458;48.958;8.284;2023-05-12T01:31:38;100067.16;;;15.56;77.73
30708;BME280;17458;48.958;8.284;2023-05-12T01:34:22;100069.22;;;15.68;77.03
30708;BME280;17458;48.958;8.284;2023-05-12T01:37:08;100074.88;;;15.47;77.79
30708;BME280;17458;48.958;8.284;2023-05-12T01:39:53;100069.47;;;15.11;78.66
30708;BME280;17458;48.958;8.284;2023-05-12T01:42:40;100063.97;;;15.05;79.35
30708;BME280;17458;48.958;8.284;2023-05-12T01:45:24;100065.47;;;15.27;78.85
30708;BME280;17458;48.958;8.284;2023-05-12T01:48:10;100067.09;;;15.22;78.37
30708;BME280;17458;48.958;8.284;2023-05-12T01:50:54;100068.91;;;15.23;79.34
30708;BME280;17458;48.958;8.284;2023-05-12T01:53:38;100069.03;;;15.28;78.80
30708;BME280;17458;48.958;8.284;2023-05-12T01:56:22;100067.09;;;15.55;78.00
30708;BME280;17458;48.958;8.284;2023-05-12T01:59:06;100070.34;;;15.45;77.97
30708;BME280;17458;48.958;8.284;2023-05-12T02:01:51;100074.25;;;15.23;79.43
30708;BME280;17458;48.958;8.284;2023-05-12T02:04:42;100065.56;;;15.32;78.88
30708;BME280;17458;48.958;8.284;2023-05-12T02:07:26;100076.53;;;15.41;78.45
30708;BME280;17458;48.958;8.284;2023-05-12T02:10:10;100075.38;;;15.33;78.69
30708;BME280;17458;48.958;8.284;2023-05-12T02:12:53;100073.75;;;15.38;78.41
30708;BME280;17458;48.958;8.284;2023-05-12T02:15:37;100072.94;;;15.07;79.81
30708;BME280;17458;48.958;8.284;2023-05-12T02:18:21;100074.75;;;15.08;79.74
30708;BME280;17458;48.958;8.284;2023-05-12T02:21:05;100068.84;;;15.21;79.32
30708;BME280;17458;48.958;8.284;2023-05-12T02:23:50;100068.72;;;15.50;78.44
30708;BME280;17458;48.958;8.284;2023-05-12T02:26:34;100065.56;;;15.65;77.80
30708;BME280;17458;48.958;8.284;2023-05-12T02:29:17;100068.97;;;15.59;78.04
30708;BME280;17458;48.958;8.284;2023-05-12T02:32:02;100075.06;;;15.53;78.18
30708;BME280;17458;48.958;8.284;2023-05-12T02:34:46;100070.41;;;15.46;78.87
30708;BME280;17458;48.958;8.284;2023-05-12T02:37:31;100060.31;;;15.69;77.91
30708;BME280;17458;48.958;8.284;2023-05-12T02:40:15;100071.66;;;15.26;78.77
30708;BME280;17458;48.958;8.284;2023-05-12T02:42:59;100065.91;;;15.11;79.97
30708;BME280;17458;48.958;8.284;2023-05-12T02:45:44;100065.59;;;15.33;79.53
30708;BME280;17458;48.958;8.284;2023-05-12T02:48:28;100063.13;;;15.41;79.24
30708;BME280;17458;48.958;8.284;2023-05-12T02:51:12;100060.06;;;15.25;79.22
30708;BME280;17458;48.958;8.284;2023-05-12T02:53:55;100057.78;;;15.41;79.18
30708;BME280;17458;48.958;8.284;2023-05-12T02:56:39;100059.44;;;15.36;79.14
30708;BME280;17458;48.958;8.284;2023-05-12T02:59:23;100059.88;;;15.19;80.49
30708;BME280;17458;48.958;8.284;2023-05-12T03:02:07;100063.63;;;15.26;80.21
30708;BME280;17458;48.958;8.284;2023-05-12T03:04:51;100057.97;;;15.14;80.51
30708;BME280;17458;48.958;8.284;2023-05-12T03:07:35;100057.44;;;15.27;80.15
30708;BME280;17458;48.958;8.284;2023-05-12T03:10:20;100058.28;;;14.93;81.05
30708;BME280;17458;48.958;8.284;2023-05-12T03:13:04;100063.38;;;15.17;80.16
30708;BME280;17458;48.958;8.284;2023-05-12T03:15:48;100061.81;;;15.25;79.08
30708;BME280;17458;48.958;8.284;2023-05-12T03:18:32;100060.50;;;15.42;78.55
30708;BME280;17458;48.958;8.284;2023-05-12T03:21:16;100068.50;;;15.41;78.71
30708;BME280;17458;48.958;8.284;2023-05-12T03:24:00;100066.78;;;15.44;78.39
30708;BME280;17458;48.958;8.284;2023-05-12T03:26:44;100075.75;;;15.46;78.39
30708;BME280;17458;48.958;8.284;2023-05-12T03:29:29;100075.44;;;15.34;78.03
30708;BME280;17458;48.958;8.284;2023-05-12T03:32:13;100069.75;;;15.22;79.19
30708;BME280;17458;48.958;8.284;2023-05-12T03:34:57;100070.13;;;15.36;78.53
30708;BME280;17458;48.958;8.284;2023-05-12T03:37:41;100064.44;;;14.90;79.86
30708;BME280;17458;48.958;8.284;2023-05-12T03:40:26;100063.56;;;15.23;79.68
30708;BME280;17458;48.958;8.284;2023-05-12T03:43:10;100061.69;;;14.87;80.16
30708;BME280;17458;48.958;8.284;2023-05-12T03:45:54;100061.72;;;14.89;80.36
30708;BME280;17458;48.958;8.284;2023-05-12T03:48:37;100072.25;;;15.16;80.08
30708;BME280;17458;48.958;8.284;2023-05-12T03:51:21;100071.41;;;15.17;79.39
30708;BME280;17458;48.958;8.284;2023-05-12T03:54:08;100063.56;;;15.23;78.96
30708;BME280;17458;48.958;8.284;2023-05-12T03:56:52;100066.13;;;15.20;78.94
30708;BME280;17458;48.958;8.284;2023-05-12T03:59:36;100062.69;;;15.24;78.33
30708;BME280;17458;48.958;8.284;2023-05-12T04:02:20;100064.72;;;15.34;77.92
30708;BME280;17458;48.958;8.284;2023-05-12T04:05:04;100064.19;;;15.47;77.59
30708;BME280;17458;48.958;8.284;2023-05-12T04:07:51;100062.09;;;15.03;78.69
30708;BME280;17458;48.958;8.284;2023-05-12T04:10:38;100063.88;;;15.35;78.03
30708;BME280;17458;48.958;8.284;2023-05-12T04:13:23;100059.28;;;15.30;77.67
30708;BME280;17458;48.958;8.284;2023-05-12T04:16:08;100058.59;;;15.05;78.42
30708;BME280;17458;48.958;8.284;2023-05-12T04:18:52;100062.72;;;15.25;78.13
30708;BME280;17458;48.958;8.284;2023-05-12T04:21:36;100061.97;;;15.31;77.36
30708;BME280;17458;48.958;8.284;2023-05-12T04:24:20;100065.38;;;15.24;77.56
30708;BME280;17458;48.958;8.284;2023-05-12T04:27:05;100065.09;;;15.13;77.86
30708;BME280;17458;48.958;8.284;2023-05-12T04:29:50;100068.03;;;15.24;77.79
30708;BME280;17458;48.958;8.284;2023-05-12T04:32:34;100071.06;;;15.05;78.06
30708;BME280;17458;48.958;8.284;2023-05-12T04:35:19;100069.25;;;15.04;79.22
30708;BME280;17458;48.958;8.284;2023-05-12T04:38:04;100071.88;;;15.02;78.54
30708;BME280;17458;48.958;8.284;2023-05-12T04:40:48;100070.00;;;15.31;77.72
30708;BME280;17458;48.958;8.284;2023-05-12T04:43:33;100077.28;;;15.37;77.44
30708;BME280;17458;48.958;8.284;2023-05-12T04:46:18;100072.94;;;15.40;77.80
30708;BME280;17458;48.958;8.284;2023-05-12T04:49:02;100072.47;;;14.90;79.13
30708;BME280;17458;48.958;8.284;2023-05-12T04:51:46;100073.16;;;15.16;78.51
30708;BME280;17458;48.958;8.284;2023-05-12T04:54:30;100082.22;;;15.21;78.51
30708;BME280;17458;48.958;8.284;2023-05-12T04:57:17;100077.38;;;15.40;77.92
30708;BME280;17458;48.958;8.284;2023-05-12T05:00:02;100081.22;;;15.51;76.98
30708;BME280;17458;48.958;8.284;2023-05-12T05:02:49;100083.22;;;15.56;76.86
30708;BME280;17458;48.958;8.284;2023-05-12T05:05:34;100085.38;;;15.71;75.99
30708;BME280;17458;48.958;8.284;2023-05-12T05:08:18;100089.72;;;15.68;75.61
30708;BME280;17458;48.958;8.284;2023-05-12T05:11:03;100089.16;;;15.48;75.74
30708;BME280;17458;48.958;8.284;2023-05-12T05:13:48;100090.91;;;15.79;74.96
30708;BME280;17458;48.958;8.284;2023-05-12T05:16:33;100100.81;;;15.50;75.02
30708;BME280;17458;48.958;8.284;2023-05-12T05:19:18;100091.06;;;15.52;74.46
30708;BME280;17458;48.958;8.284;2023-05-12T05:22:03;100090.97;;;15.82;73.51
30708;BME280;17458;48.958;8.284;2023-05-12T05:24:48;100098.47;;;15.97;72.32
30708;BME280;17458;48.958;8.284;2023-05-12T05:27:33;100104.97;;;16.06;72.24
30708;BME280;17458;48.958;8.284;2023-05-12T05:30:16;100096.06;;;15.71;73.09
30708;BME280;17458;48.958;8.284;2023-05-12T05:33:02;100104.13;;;15.73;72.69
30708;BME280;17458;48.958;8.284;2023-05-12T05:35:46;100101.03;;;15.92;72.79
30708;BME280;17458;48.958;8.284;2023-05-12T05:38:31;100105.84;;;15.69;72.29
30708;BME280;17458;48.958;8.284;2023-05-12T05:41:15;100109.97;;;15.56;73.19
30708;BME280;17458;48.958;8.284;2023-05-12T05:43:59;100108.03;;;15.85;72.00
30708;BME280;17458;48.958;8.284;2023-05-12T05:46:45;100107.56;;;15.67;72.38
30708;BME280;17458;48.958;8.284;2023-05-12T05:49:29;100111.41;;;15.78;72.24
30708;BME280;17458;48.958;8.284;2023-05-12T05:52:16;100110.63;;;15.82;72.73
30708;BME280;17458;48.958;8.284;2023-05-12T05:54:59;100116.28;;;15.94;72.22
30708;BME280;17458;48.958;8.284;2023-05-12T05:57:45;100119.19;;;15.68;73.90
30708;BME280;17458;48.958;8.284;2023-05-12T06:00:30;100110.97;;;15.96;72.01
30708;BME280;17458;48.958;8.284;2023-05-12T06:03:14;100120.41;;;16.18;71.71
30708;BME280;17458;48.958;8.284;2023-05-12T06:05:59;100120.72;;;15.59;73.13
30708;BME280;17458;48.958;8.284;2023-05-12T06:08:44;100120.31;;;15.77;73.23
30708;BME280;17458;48.958;8.284;2023-05-12T06:11:28;100126.19;;;15.97;72.66
30708;BME280;17458;48.958;8.284;2023-05-12T06:14:12;100124.03;;;16.20;72.16
30708;BME280;17458;48.958;8.284;2023-05-12T06:16:56;100132.41;;;16.34;71.41
30708;BME280;17458;48.958;8.284;2023-05-12T06:19:41;100127.22;;;16.04;71.53
30708;BME280;17458;48.958;8.284;2023-05-12T06:22:26;100136.44;;;16.54;70.85
30708;BME280;17458;48.958;8.284;2023-05-12T06:25:10;100136.09;;;16.78;70.21
30708;BME280;17458;48.958;8.284;2023-05-12T06:27:55;100139.84;;;16.86;69.17
30708;BME280;17458;48.958;8.284;2023-05-12T06:30:39;100138.94;;;16.85;68.83
30708;BME280;17458;48.958;8.284;2023-05-12T06:33:23;100135.59;;;16.95;68.27
30708;BME280;17458;48.958;8.284;2023-05-12T06:36:07;100135.28;;;17.24;67.70
30708;BME280;17458;48.958;8.284;2023-05-12T06:38:53;100141.25;;;17.56;66.64
30708;BME280;17458;48.958;8.284;2023-05-12T06:41:37;100138.50;;;17.51;66.52
30708;BME280;17458;48.958;8.284;2023-05-12T06:44:22;100147.06;;;17.32;66.36
30708;BME280;17458;48.958;8.284;2023-05-12T06:47:09;100147.19;;;16.94;66.95
30708;BME280;17458;48.958;8.284;2023-05-12T06:49:53;100143.31;;;16.80;68.04
30708;BME280;17458;48.958;8.284;2023-05-12T06:52:37;100143.09;;;17.12;67.17
30708;BME280;17458;48.958;8.284;2023-05-12T06:55:21;100149.69;;;17.29;66.57
30708;BME280;17458;48.958;8.284;2023-05-12T06:58:06;100149.59;;;17.24;66.72
30708;BME280;17458;48.958;8.284;2023-05-12T07:00:50;100151.91;;;17.51;65.62
30708;BME280;17458;48.958;8.284;2023-05-12T07:03:34;100148.66;;;17.22;66.65
30708;BME280;17458;48.958;8.284;2023-05-12T07:06:19;100153.81;;;17.12;67.49
30708;BME280;17458;48.958;8.284;2023-05-12T07:09:03;100152.22;;;17.21;65.82
30708;BME280;17458;48.958;8.284;2023-05-12T07:11:47;100155.94;;;16.86;67.27
30708;BME280;17458;48.958;8.284;2023-05-12T07:14:31;100156.88;;;16.49;69.70
30708;BME280;17458;48.958;8.284;2023-05-12T07:17:15;100155.06;;;16.87;66.77
30708;BME280;17458;48.958;8.284;2023-05-12T07:19:59;100152.81;;;17.07;67.46
30708;BME280;17458;48.958;8.284;2023-05-12T07:22:46;100139.66;;;17.64;65.18
30708;BME280;17458;48.958;8.284;2023-05-12T07:25:30;100153.53;;;16.99;65.38
30708;BME280;17458;48.958;8.284;2023-05-12T07:28:14;100151.66;;;17.38;65.57
30708;BME280;17458;48.958;8.284;2023-05-12T07:30:58;100152.75;;;17.49;65.28
30708;BME280;17458;48.958;8.284;2023-05-12T07:33:43;100148.28;;;17.96;62.99
30708;BME280;17458;48.958;8.284;2023-05-12T07:36:27;100142.97;;;18.00;62.43
30708;BME280;17458;48.958;8.284;2023-05-12T07:39:11;100149.19;;;17.96;62.80
30708;BME280;17458;48.958;8.284;2023-05-12T07:41:58;100147.44;;;18.00;63.70
30708;BME280;17458;48.958;8.284;2023-05-12T07:44:42;100150.94;;;17.94;62.96
30708;BME280;17458;48.958;8.284;2023-05-12T07:47:26;100145.75;;;18.06;62.97
30708;BME280;17458;48.958;8.284;2023-05-12T07:50:12;100157.63;;;17.69;63.68
30708;BME280;17458;48.958;8.284;2023-05-12T07:52:56;100152.09;;;18.12;62.78
30708;BME280;17458;48.958;8.284;2023-05-12T07:55:40;100141.28;;;18.05;62.19
30708;BME280;17458;48.958;8.284;2023-05-12T07:58:25;100148.00;;;18.35;62.51
30708;BME280;17458;48.958;8.284;2023-05-12T08:01:09;100143.34;;;18.25;62.73
30708;BME280;17458;48.958;8.284;2023-05-12T08:03:53;100144.13;;;18.73;61.57
30708;BME280;17458;48.958;8.284;2023-05-12T08:06:37;100137.38;;;19.09;60.93
30708;BME280;17458;48.958;8.284;2023-05-12T08:09:21;100145.81;;;19.39;60.96
30708;BME280;17458;48.958;8.284;2023-05-12T08:12:05;100143.44;;;19.62;59.27
30708;BME280;17458;48.958;8.284;2023-05-12T08:14:49;100144.88;;;18.63;59.99
30708;BME280;17458;48.958;8.284;2023-05-12T08:17:33;100147.38;;;19.18;59.96
30708;BME280;17458;48.958;8.284;2023-05-12T08:20:18;100136.31;;;18.93;58.32
30708;BME280;17458;48.958;8.284;2023-05-12T08:23:01;100148.56;;;18.71;60.49
30708;BME280;17458;48.958;8.284;2023-05-12T08:25:45;100146.91;;;18.80;59.06
30708;BME280;17458;48.958;8.284;2023-05-12T08:28:31;100142.16;;;18.60;59.48
30708;BME280;17458;48.958;8.284;2023-05-12T08:31:15;100142.59;;;18.95;58.92
30708;BME280;17458;48.958;8.284;2023-05-12T08:33:59;100150.00;;;18.48;61.72
30708;BME280;17458;48.958;8.284;2023-05-12T08:36:43;100144.16;;;18.18;61.11
30708;BME280;17458;48.958;8.284;2023-05-12T08:39:27;100148.59;;;18.73;60.58
30708;BME280;17458;48.958;8.284;2023-05-12T08:42:29;100141.72;;;18.93;59.82
30708;BME280;17458;48.958;8.284;2023-05-12T08:45:17;100153.69;;;19.20;59.50
30708;BME280;17458;48.958;8.284;2023-05-12T08:48:02;100153.88;;;18.65;59.75
30708;BME280;17458;48.958;8.284;2023-05-12T08:50:48;100150.94;;;18.50;61.67
30708;BME280;17458;48.958;8.284;2023-05-12T08:53:36;100149.59;;;18.21;62.86
30708;BME280;17458;48.958;8.284;2023-05-12T08:56:21;100151.75;;;19.09;60.19
30708;BME280;17458;48.958;8.284;2023-05-12T08:59:08;100163.72;;;18.63;61.71
30708;BME280;17458;48.958;8.284;2023-05-12T09:01:53;100163.00;;;18.19;61.90
30708;BME280;17458;48.958;8.284;2023-05-12T09:04:37;100162.72;;;18.58;61.98
30708;BME280;17458;48.958;8.284;2023-05-12T09:07:22;100160.34;;;18.22;63.74
30708;BME280;17458;48.958;8.284;2023-05-12T09:10:13;100159.91;;;18.51;62.80
30708;BME280;17458;48.958;8.284;2023-05-12T09:13:02;100161.25;;;18.79;61.67
30708;BME280;17458;48.958;8.284;2023-05-12T09:15:46;100162.97;;;18.75;61.12
30708;BME280;17458;48.958;8.284;2023-05-12T09:18:44;100152.53;;;18.37;62.48
30708;BME280;17458;48.958;8.284;2023-05-12T09:21:29;100158.78;;;17.84;62.42
30708;BME280;17458;48.958;8.284;2023-05-12T09:24:13;100161.28;;;17.73;62.94
30708;BME280;17458;48.958;8.284;2023-05-12T09:26:57;100150.13;;;18.00;64.29
30708;BME280;17458;48.958;8.284;2023-05-12T09:29:48;100153.06;;;18.72;61.89
30708;BME280;17458;48.958;8.284;2023-05-12T09:32:33;100153.88;;;18.67;61.50
30708;BME280;17458;48.958;8.284;2023-05-12T09:35:17;100156.97;;;18.96;62.17
30708;BME280;17458;48.958;8.284;2023-05-12T09:38:08;100149.19;;;19.19;59.43
30708;BME280;17458;48.958;8.284;2023-05-12T09:40:52;100149.44;;;19.41;59.40
30708;BME280;17458;48.958;8.284;2023-05-12T09:43:43;100151.16;;;19.33;58.48
30708;BME280;17458;48.958;8.284;2023-05-12T09:46:27;100162.16;;;19.53;58.09
30708;BME280;17458;48.958;8.284;2023-05-12T09:49:12;100151.03;;;19.24;59.57
30708;BME280;17458;48.958;8.284;2023-05-12T09:51:56;100162.25;;;19.59;58.63
30708;BME280;17458;48.958;8.284;2023-05-12T09:54:43;100161.25;;;19.51;57.89
30708;BME280;17458;48.958;8.284;2023-05-12T09:57:28;100164.06;;;19.60;57.03
30708;BME280;17458;48.958;8.284;2023-05-12T10:00:13;100162.50;;;19.83;58.14
30708;BME280;17458;48.958;8.284;2023-05-12T10:03:01;100161.78;;;19.21;58.98
30708;BME280;17458;48.958;8.284;2023-05-12T10:05:52;100158.72;;;19.63;58.34
30708;BME280;17458;48.958;8.284;2023-05-12T10:08:47;100155.66;;;20.25;55.32
30708;BME280;17458;48.958;8.284;2023-05-12T10:11:34;100145.66;;;20.10;55.92
30708;BME280;17458;48.958;8.284;2023-05-12T10:14:18;100156.66;;;20.35;55.93
30708;BME280;17458;48.958;8.284;2023-05-12T10:17:04;100148.09;;;19.78;55.19
30708;BME280;17458;48.958;8.284;2023-05-12T10:19:48;100143.31;;;19.53;56.14
30708;BME280;17458;48.958;8.284;2023-05-12T10:22:33;100153.97;;;19.44;55.99
30708;BME280;17458;48.958;8.284;2023-05-12T10:25:17;100159.47;;;19.50;56.75
30708;BME280;17458;48.958;8.284;2023-05-12T10:28:02;100156.69;;;19.45;58.12
30708;BME280;17458;48.958;8.284;2023-05-12T10:30:46;100157.31;;;19.22;58.53
30708;BME280;17458;48.958;8.284;2023-05-12T10:33:31;100161.53;;;19.01;59.63
30708;BME280;17458;48.958;8.284;2023-05-12T10:36:17;100165.97;;;18.98;60.39
30708;BME280;17458;48.958;8.284;2023-05-12T10:39:05;100158.03;;;19.07;62.25
30708;BME280;17458;48.958;8.284;2023-05-12T10:41:59;100154.94;;;18.78;62.08
30708;BME280;17458;48.958;8.284;2023-05-12T10:44:52;100146.44;;;18.49;62.69
30708;BME280;17458;48.958;8.284;2023-05-12T10:47:36;100159.94;;;18.54;62.28
30708;BME280;17458;48.958;8.284;2023-05-12T10:50:27;100146.19;;;18.32;62.64
30708;BME280;17458;48.958;8.284;2023-05-12T10:53:11;100151.38;;;18.79;61.18
30708;BME280;17458;48.958;8.284;2023-05-12T10:55:55;100150.81;;;17.88;62.65
30708;BME280;17458;48.958;8.284;2023-05-12T11:07:32;100144.56;;;19.07;58.12
30708;BME280;17458;48.958;8.284;2023-05-12T11:10:17;100146.91;;;18.81;58.03
30708;BME280;17458;48.958;8.284;2023-05-12T11:13:02;100146.13;;;18.88;56.80
30708;BME280;17458;48.958;8.284;2023-05-12T11:15:49;100148.44;;;19.30;56.87
30708;BME280;17458;48.958;8.284;2023-05-12T11:18:33;100153.72;;;19.24;56.93
30708;BME280;17458;48.958;8.284;2023-05-12T11:21:17;100155.88;;;18.80;56.41
30708;BME280;17458;48.958;8.284;2023-05-12T11:24:01;100155.69;;;19.36;56.32
30708;BME280;17458;48.958;8.284;2023-05-12T11:26:48;100153.75;;;19.23;57.75
30708;BME280;17458;48.958;8.284;2023-05-12T11:29:35;100153.00;;;19.36;54.78
30708;BME280;17458;48.958;8.284;2023-05-12T11:32:20;100164.09;;;19.63;55.15
30708;BME280;17458;48.958;8.284;2023-05-12T11:35:13;100163.13;;;19.57;55.77
30708;BME280;17458;48.958;8.284;2023-05-12T11:37:58;100158.97;;;19.91;54.94
30708;BME280;17458;48.958;8.284;2023-05-12T11:40:42;100151.31;;;19.47;57.01
30708;BME280;17458;48.958;8.284;2023-05-12T11:43:27;100159.91;;;19.16;57.33
30708;BME280;17458;48.958;8.284;2023-05-12T11:46:22;100152.66;;;19.89;56.77
30708;BME280;17458;48.958;8.284;2023-05-12T11:49:09;100161.63;;;19.86;57.46
30708;BME280;17458;48.958;8.284;2023-05-12T11:51:59;100157.50;;;19.40;58.21
30708;BME280;17458;48.958;8.284;2023-05-12T11:54:51;100161.00;;;20.17;56.10
30708;BME280;17458;48.958;8.284;2023-05-12T11:57:36;100170.28;;;19.55;58.08
30708;BME280;17458;48.958;8.284;2023-05-12T12:00:33;100167.50;;;20.42;56.50
30708;BME280;17458;48.958;8.284;2023-05-12T12:03:17;100169.31;;;20.43;57.08
30708;BME280;17458;48.958;8.284;2023-05-12T12:06:02;100170.53;;;19.77;57.05
30708;BME280;17458;48.958;8.284;2023-05-12T12:08:54;100165.66;;;20.37;56.29
30708;BME280;17458;48.958;8.284;2023-05-12T12:11:38;100171.41;;;20.87;54.96
30708;BME280;17458;48.958;8.284;2023-05-12T12:14:22;100175.09;;;21.09;52.21
30708;BME280;17458;48.958;8.284;2023-05-12T12:17:06;100165.25;;;21.15;51.91
30708;BME280;17458;48.958;8.284;2023-05-12T12:19:50;100169.84;;;21.30;50.67
30708;BME280;17458;48.958;8.284;2023-05-12T12:22:34;100166.94;;;20.97;51.46
30708;BME280;17458;48.958;8.284;2023-05-12T12:25:19;100164.19;;;20.84;51.79
30708;BME280;17458;48.958;8.284;2023-05-12T12:28:04;100170.38;;;20.68;53.13
30708;BME280;17458;48.958;8.284;2023-05-12T12:30:48;100177.84;;;21.15;52.10
30708;BME280;17458;48.958;8.284;2023-05-12T12:33:32;100171.00;;;20.35;54.26
30708;BME280;17458;48.958;8.284;2023-05-12T12:36:16;100182.88;;;20.54;53.62
30708;BME280;17458;48.958;8.284;2023-05-12T12:39:01;100176.75;;;20.81;53.33
30708;BME280;17458;48.958;8.284;2023-05-12T12:41:45;100180.53;;;21.12;52.26
30708;BME280;17458;48.958;8.284;2023-05-12T12:44:31;100184.97;;;21.07;52.85
30708;BME280;17458;48.958;8.284;2023-05-12T12:47:15;100173.78;;;20.38;57.13
30708;BME280;17458;48.958;8.284;2023-05-12T12:49:58;100175.16;;;19.95;57.30
30708;BME280;17458;48.958;8.284;2023-05-12T12:52:42;100171.94;;;19.45;59.87
30708;BME280;17458;48.958;8.284;2023-05-12T12:55:27;100169.50;;;19.65;59.52
30708;BME280;17458;48.958;8.284;2023-05-12T12:58:11;100170.78;;;20.05;59.24
30708;BME280;17458;48.958;8.284;2023-05-12T13:00:56;100175.97;;;19.83;59.51
30708;BME280;17458;48.958;8.284;2023-05-12T13:03:40;100171.78;;;20.17;59.16
30708;BME280;17458;48.958;8.284;2023-05-12T13:06:24;100163.69;;;20.17;58.08
30708;BME280;17458;48.958;8.284;2023-05-12T13:09:08;100171.44;;;20.95;57.17
30708;BME280;17458;48.958;8.284;2023-05-12T13:11:52;100177.09;;;21.46;53.61
30708;BME280;17458;48.958;8.284;2023-05-12T13:14:36;100166.28;;;21.43;54.25
30708;BME280;17458;48.958;8.284;2023-05-12T13:17:20;100166.13;;;21.14;53.04
30708;BME280;17458;48.958;8.284;2023-05-12T13:20:04;100166.25;;;21.39;52.82
30708;BME280;17458;48.958;8.284;2023-05-12T13:22:48;100169.97;;;21.83;51.50
30708;BME280;17458;48.958;8.284;2023-05-12T13:25:32;100167.13;;;21.29;52.55
30708;BME280;17458;48.958;8.284;2023-05-12T13:28:16;100158.25;;;21.74;51.43
30708;BME280;17458;48.958;8.284;2023-05-12T13:31:01;100168.97;;;21.42;53.27
30708;BME280;17458;48.958;8.284;2023-05-12T13:33:47;100159.09;;;21.53;53.32
30708;BME280;17458;48.958;8.284;2023-05-12T13:36:32;100170.34;;;20.65;56.39
30708;BME280;17458;48.958;8.284;2023-05-12T13:39:17;100168.88;;;19.92;57.55
30708;BME280;17458;48.958;8.284;2023-05-12T13:42:01;100167.47;;;20.38;57.81
30708;BME280;17458;48.958;8.284;2023-05-12T13:44:45;100165.47;;;20.15;59.28
30708;BME280;17458;48.958;8.284;2023-05-12T13:47:30;100168.72;;;19.76;59.63
30708;BME280;17458;48.958;8.284;2023-05-12T13:50:14;100171.25;;;19.61;62.37
30708;BME280;17458;48.958;8.284;2023-05-12T13:52:58;100182.00;;;19.58;65.66
30708;BME280;17458;48.958;8.284;2023-05-12T13:55:42;100184.19;;;18.57;68.69
30708;BME280;17458;48.958;8.284;2023-05-12T13:58:27;100183.31;;;18.58;69.15
30708;BME280;17458;48.958;8.284;2023-05-12T14:01:11;100178.69;;;18.49;69.16
30708;BME280;17458;48.958;8.284;2023-05-12T14:03:56;100180.34;;;18.38;69.80
30708;BME280;17458;48.958;8.284;2023-05-12T14:06:40;100172.13;;;18.30;72.19
30708;BME280;17458;48.958;8.284;2023-05-12T14:09:24;100181.84;;;18.21;73.73
30708;BME280;17458;48.958;8.284;2023-05-12T14:12:09;100180.09;;;18.26;72.72
30708;BME280;17458;48.958;8.284;2023-05-12T14:14:53;100178.66;;;18.46;71.44
30708;BME280;17458;48.958;8.284;2023-05-12T14:17:37;100179.19;;;18.80;72.54
30708;BME280;17458;48.958;8.284;2023-05-12T14:20:21;100170.75;;;19.23;70.99
30708;BME280;17458;48.958;8.284;2023-05-12T14:23:05;100179.16;;;19.47;68.34
30708;BME280;17458;48.958;8.284;2023-05-12T14:25:49;100180.91;;;19.45;69.45
30708;BME280;17458;48.958;8.284;2023-05-12T14:28:32;100169.84;;;19.20;70.84
30708;BME280;17458;48.958;8.284;2023-05-12T14:31:16;100173.53;;;19.29;70.13
30708;BME280;17458;48.958;8.284;2023-05-12T14:34:02;100176.22;;;19.28;69.98